createdAt,value
2023-05-16T00:00:27.028Z,9.20
2023-05-16T00:05:34.710Z,11.10
2023-05-16T00:10:41.855Z,9.10
2023-05-16T00:15:48.922Z,11.40
2023-05-16T00:20:56.302Z,17.10
2023-05-16T00:26:03.821Z,15.70
2023-05-16T00:31:11.025Z,10.70
2023-05-16T00:36:18.035Z,11.20
2023-05-16T00:41:27.485Z,7.70
2023-05-16T00:46:34.514Z,6.90
2023-05-16T00:51:41.792Z,14.60
2023-05-16T00:56:48.991Z,13.80
2023-05-16T01:01:56.950Z,8.80
2023-05-16T01:07:04.283Z,8.80
2023-05-16T01:12:22.844Z,10.60
2023-05-16T01:17:38.137Z,7.90
2023-05-16T01:23:15.344Z,12.40
2023-05-16T01:28:24.260Z,17.50
2023-05-16T01:33:31.401Z,7.40
2023-05-16T01:38:45.840Z,7.20
2023-05-16T01:43:58.116Z,6.80
2023-05-16T01:49:17.375Z,9.30
2023-05-16T01:54:28.068Z,7.50
2023-05-16T01:59:35.790Z,10.50
2023-05-16T02:04:42.959Z,8.40
2023-05-16T02:09:50.077Z,6.20
2023-05-16T02:14:57.138Z,7.10
2023-05-16T02:20:07.250Z,5.60
2023-05-16T02:25:15.600Z,8.30
2023-05-16T02:30:22.691Z,5.80
2023-05-16T02:35:29.898Z,7.20
2023-05-16T02:40:36.999Z,10.50
2023-05-16T02:45:44.032Z,4.30
2023-05-16T02:50:52.268Z,3.50
2023-05-16T02:55:59.472Z,3.30
2023-05-16T03:01:06.846Z,3.40
2023-05-16T03:06:13.977Z,4.60
2023-05-16T03:11:21.933Z,2.60
2023-05-16T03:16:29.395Z,2.40
2023-05-16T03:21:36.470Z,3.90
2023-05-16T03:26:43.444Z,2.50
2023-05-16T03:31:51.430Z,2.30
2023-05-16T03:36:58.962Z,2.40
2023-05-16T03:42:07.686Z,5.40
2023-05-16T03:47:15.098Z,2.40
2023-05-16T03:52:22.383Z,2.10
2023-05-16T03:57:29.632Z,3.70
2023-05-16T04:02:36.898Z,4.60
2023-05-16T04:07:45.038Z,3.50
2023-05-16T04:12:52.858Z,4.30
2023-05-16T04:23:05.825Z,2.10
2023-05-16T04:28:12.901Z,1.90
2023-05-16T04:33:20.298Z,3.20
2023-05-16T04:38:27.457Z,6.00
2023-05-16T04:43:34.622Z,6.00
2023-05-16T04:48:41.719Z,3.00
2023-05-16T04:53:48.998Z,2.00
2023-05-16T04:58:56.583Z,2.50
2023-05-16T05:04:03.883Z,6.50
2023-05-16T05:09:11.220Z,2.70
2023-05-16T05:14:18.269Z,3.30
2023-05-16T05:19:25.535Z,2.50
2023-05-16T05:24:32.815Z,3.60
2023-05-16T05:29:40.426Z,9.70
2023-05-16T05:34:47.902Z,2.90
2023-05-16T05:39:55.301Z,2.90
2023-05-16T05:45:02.495Z,5.30
2023-05-16T05:50:13.025Z,5.30
2023-05-16T05:55:20.125Z,10.50
2023-05-16T06:00:29.447Z,4.00
2023-05-16T06:05:36.739Z,3.80
2023-05-16T06:10:43.878Z,6.40
2023-05-16T06:15:54.420Z,9.80
2023-05-16T06:21:01.469Z,3.60
2023-05-16T06:26:09.183Z,7.70
2023-05-16T06:31:16.360Z,6.80
2023-05-16T06:36:23.451Z,2.70
2023-05-16T06:41:30.624Z,2.70
2023-05-16T06:46:38.487Z,10.60
2023-05-16T06:51:45.912Z,4.80
2023-05-16T06:56:55.873Z,6.40
2023-05-16T07:02:03.128Z,4.30
2023-05-16T07:07:11.562Z,5.10
2023-05-16T07:12:24.742Z,12.90
2023-05-16T07:17:33.616Z,5.00
2023-05-16T07:22:40.876Z,10.00
2023-05-16T07:27:48.148Z,10.20
2023-05-16T07:32:55.518Z,6.00
2023-05-16T07:38:03.302Z,6.80
2023-05-16T07:48:20.290Z,4.50
2023-05-16T07:53:27.725Z,6.40
2023-05-16T07:58:35.212Z,5.30
2023-05-16T08:03:42.436Z,5.90
2023-05-16T08:08:49.598Z,10.50
2023-05-16T08:13:58.476Z,6.30
2023-05-16T08:19:06.037Z,6.20
2023-05-16T08:24:13.397Z,9.90
2023-05-16T08:29:20.702Z,4.80
2023-05-16T08:34:27.874Z,4.30
2023-05-16T08:39:35.184Z,4.10
2023-05-16T08:44:42.402Z,2.90
2023-05-16T08:49:52.687Z,5.80
2023-05-16T08:55:10.929Z,7.10
2023-05-16T09:00:20.814Z,6.10
2023-05-16T09:05:29.089Z,2.60
2023-05-16T09:10:36.471Z,3.00
2023-05-16T09:15:43.708Z,4.00
2023-05-16T09:20:53.644Z,4.50
2023-05-16T09:26:02.032Z,3.30
2023-05-16T09:31:23.224Z,2.80
2023-05-16T09:36:30.697Z,3.40
2023-05-16T09:41:40.485Z,4.10
2023-05-16T09:46:47.868Z,5.40
2023-05-16T09:57:02.960Z,2.60
2023-05-16T10:02:12.424Z,4.40
2023-05-16T10:07:20.846Z,2.80
2023-05-16T10:12:31.930Z,22.80
2023-05-16T10:17:43.507Z,3.10
2023-05-16T10:22:54.171Z,4.80
2023-05-16T10:28:02.667Z,4.80
2023-05-16T10:33:10.354Z,3.40
2023-05-16T10:38:19.439Z,5.30
2023-05-16T10:43:31.246Z,2.80
2023-05-16T10:48:40.081Z,2.50
2023-05-16T10:53:48.259Z,4.40
2023-05-16T10:58:57.065Z,4.20
2023-05-16T11:04:08.706Z,8.60
2023-05-16T11:09:29.419Z,5.50
2023-05-16T11:14:43.751Z,2.60
2023-05-16T11:19:52.384Z,2.60
2023-05-16T11:25:01.593Z,4.90
2023-05-16T11:30:17.795Z,4.50
2023-05-16T11:35:26.388Z,4.20
2023-05-16T11:40:35.181Z,17.10
2023-05-16T11:45:42.926Z,9.50
2023-05-16T11:50:50.698Z,13.50
2023-05-16T11:56:00.465Z,6.60
2023-05-16T12:01:08.648Z,2.90
2023-05-16T12:06:16.737Z,7.60
2023-05-16T12:11:26.069Z,8.60
2023-05-16T12:16:33.957Z,5.40
2023-05-16T12:21:41.576Z,6.60
2023-05-16T12:31:56.161Z,8.90
2023-05-16T12:37:03.276Z,12.40
2023-05-16T12:42:13.711Z,9.50
2023-05-16T12:47:21.629Z,4.30
2023-05-16T12:52:32.046Z,5.70
2023-05-16T12:57:39.388Z,4.30
2023-05-16T13:07:52.881Z,4.00
2023-05-16T13:13:00.511Z,16.20
2023-05-16T13:18:08.071Z,7.60
2023-05-16T13:28:21.398Z,5.90
2023-05-16T13:33:28.659Z,13.90
2023-05-16T13:38:36.390Z,10.30
2023-05-16T13:43:44.533Z,16.50
2023-05-16T13:48:51.903Z,13.70
2023-05-16T13:54:01.422Z,9.70
2023-05-16T13:59:09.717Z,11.00
2023-05-16T14:04:18.814Z,12.30
2023-05-16T14:09:25.948Z,11.60
2023-05-16T14:14:33.283Z,8.90
2023-05-16T14:19:40.471Z,7.60
2023-05-16T14:24:47.684Z,9.10
2023-05-16T14:29:54.823Z,19.00
2023-05-16T14:35:01.991Z,13.50
2023-05-16T14:40:10.978Z,13.40
2023-05-16T14:45:18.206Z,8.00
2023-05-16T14:50:25.305Z,8.10
2023-05-16T14:55:32.490Z,13.20
2023-05-16T15:00:39.704Z,7.60
2023-05-16T15:05:47.135Z,9.40
2023-05-16T15:10:54.340Z,18.90
2023-05-16T15:16:01.867Z,18.80
2023-05-16T15:21:09.399Z,8.60
2023-05-16T15:26:16.550Z,30.40
2023-05-16T15:31:23.840Z,10.30
2023-05-16T15:36:31.236Z,11.20
2023-05-16T15:42:05.330Z,17.10
2023-05-16T15:47:09.538Z,16.00
2023-05-16T15:52:16.765Z,11.30
2023-05-16T15:57:24.601Z,11.70
2023-05-16T16:02:32.361Z,17.30
2023-05-16T16:07:39.564Z,16.90
2023-05-16T16:12:59.163Z,18.30
2023-05-16T16:18:07.073Z,15.70
2023-05-16T16:23:14.181Z,13.10
2023-05-16T16:28:22.557Z,17.30
2023-05-16T16:33:31.005Z,23.20
2023-05-16T16:38:38.093Z,10.60
2023-05-16T16:43:45.425Z,18.20
2023-05-16T16:48:53.257Z,13.80
2023-05-16T16:54:00.341Z,15.60
2023-05-16T16:59:07.881Z,14.70
2023-05-16T17:04:15.089Z,19.60
2023-05-16T17:09:25.448Z,14.50
2023-05-16T17:14:35.243Z,20.30
2023-05-16T17:19:42.404Z,19.60
2023-05-16T17:24:49.661Z,23.80
2023-05-16T17:29:57.415Z,18.30
2023-05-16T17:40:17.254Z,16.10
2023-05-16T17:45:24.666Z,11.80
2023-05-16T17:50:32.805Z,28.40
2023-05-16T17:55:39.992Z,11.60
2023-05-16T18:00:48.714Z,24.70
2023-05-16T18:05:56.162Z,24.50
2023-05-16T18:11:03.314Z,27.70
2023-05-16T18:16:12.478Z,24.20
2023-05-16T18:21:20.100Z,19.60
2023-05-16T18:26:27.438Z,16.80
2023-05-16T18:31:36.965Z,21.50
2023-05-16T18:36:44.197Z,18.50
2023-05-16T18:41:51.333Z,19.40
2023-05-16T18:46:58.982Z,15.60
2023-05-16T18:52:07.462Z,23.50
2023-05-16T18:57:14.669Z,23.40
2023-05-16T19:02:30.197Z,18.00
2023-05-16T19:07:41.490Z,20.80
2023-05-16T19:12:49.329Z,16.00
2023-05-16T19:17:56.666Z,18.20
2023-05-16T19:23:04.522Z,20.30
2023-05-16T19:33:20.780Z,24.80
2023-05-16T19:38:28.267Z,14.30
2023-05-16T19:43:35.767Z,17.00
2023-05-16T19:48:49.242Z,26.80
2023-05-16T19:53:57.874Z,22.10
2023-05-16T19:59:10.258Z,18.10
2023-05-16T20:04:18.123Z,20.80
2023-05-16T20:09:28.867Z,13.80
2023-05-16T20:14:37.752Z,11.30
2023-05-16T20:19:45.730Z,26.40
2023-05-16T20:24:54.513Z,19.30
2023-05-16T20:30:07.676Z,18.40
2023-05-16T20:35:18.297Z,12.80
2023-05-16T20:40:25.611Z,19.30
2023-05-16T20:45:33.353Z,19.50
2023-05-16T20:50:41.040Z,20.60
2023-05-16T20:55:48.108Z,17.30
2023-05-16T21:00:58.335Z,19.80
2023-05-16T21:06:05.756Z,15.90
2023-05-16T21:11:13.055Z,17.50
2023-05-16T21:16:20.150Z,15.50
2023-05-16T21:21:27.249Z,19.90
2023-05-16T21:26:35.802Z,29.30
2023-05-16T21:31:42.985Z,20.00
2023-05-16T21:36:50.302Z,16.10
2023-05-16T21:41:57.353Z,15.30
2023-05-16T21:47:04.425Z,16.60
2023-05-16T21:52:11.676Z,26.90
2023-05-16T21:57:18.939Z,13.90
2023-05-16T22:02:26.126Z,24.60
2023-05-16T22:07:33.366Z,18.30
2023-05-16T22:12:40.941Z,17.80
2023-05-16T22:17:48.314Z,11.30
2023-05-16T22:22:55.619Z,13.30
2023-05-16T22:28:02.669Z,16.10
2023-05-16T22:33:10.009Z,12.90
2023-05-16T22:38:17.336Z,27.90
2023-05-16T22:43:24.504Z,12.90
2023-05-16T22:48:31.828Z,15.20
2023-05-16T22:53:39.061Z,13.30
2023-05-16T22:58:46.206Z,13.90
2023-05-16T23:03:53.283Z,16.40
2023-05-16T23:09:02.452Z,15.00
2023-05-16T23:14:09.688Z,11.80
2023-05-16T23:19:17.204Z,24.00
2023-05-16T23:24:25.353Z,17.40
2023-05-16T23:29:32.445Z,16.00
2023-05-16T23:34:39.634Z,16.60
2023-05-16T23:39:46.711Z,23.40
2023-05-16T23:44:53.838Z,21.10
2023-05-16T23:50:00.890Z,19.70
2023-05-16T23:55:09.234Z,16.80
